Time;durP1;ratioP1;P1;durP2;ratioP2;P2;SDS_P1;SDS_P2;PMS_P1;PMS_P2;Temp;Humidity;BMP_temperature;BMP_pressure;BME280_temperature;BME280_humidity;BME280_pressure;Samples;Min_cycle;Max_cycle;Signal;HPM_P1;HPM_P2
2022/03/16 00:01:41;;;;;;;37.10;24.45;;;;;;;;;;5079131;28;20470;-83
2022/03/16 00:04:08;;;;;;;37.22;23.40;;;;;;;;;;5082946;28;20419;-82
2022/03/16 00:06:35;;;;;;;33.00;22.50;;;;;;;;;;5081003;28;20415;-83
2022/03/16 00:09:01;;;;;;;35.35;23.85;;;;;;;;;;5080559;28;20428;-84
2022/03/16 00:11:27;;;;;;;32.60;23.83;;;;;;;;;;5081260;28;20473;-84
2022/03/16 00:13:54;;;;;;;34.17;24.05;;;;;;;;;;5080341;28;20438;-83
2022/03/16 00:16:20;;;;;;;38.67;25.70;;;;;;;;;;5081239;28;20481;-84
2022/03/16 00:18:46;;;;;;;36.00;23.83;;;;;;;;;;5080471;28;20490;-83
2022/03/16 00:21:13;;;;;;;38.58;24.52;;;;;;;;;;5079873;28;21171;-83
2022/03/16 00:23:40;;;;;;;32.40;22.92;;;;;;;;;;5081754;28;20423;-83
2022/03/16 00:26:06;;;;;;;36.83;24.55;;;;;;;;;;5080558;28;20475;-83
2022/03/16 00:28:33;;;;;;;33.45;23.40;;;;;;;;;;5080127;28;20554;-83
2022/03/16 00:30:59;;;;;;;34.40;24.00;;;;;;;;;;5079371;28;20482;-83
2022/03/16 00:33:25;;;;;;;34.70;23.90;;;;;;;;;;5078999;28;20418;-83
2022/03/16 00:35:51;;;;;;;37.92;25.48;;;;;;;;;;5080867;28;20425;-83
2022/03/16 00:38:17;;;;;;;45.97;30.00;;;;;;;;;;5079400;28;21316;-83
2022/03/16 00:40:45;;;;;;;47.60;29.10;;;;;;;;;;5079300;28;20411;-83
2022/03/16 00:43:11;;;;;;;42.80;28.23;;;;;;;;;;5080410;28;20425;-84
2022/03/16 00:45:38;;;;;;;36.63;26.98;;;;;;;;;;5080042;28;20414;-83
2022/03/16 00:48:04;;;;;;;42.72;27.33;;;;;;;;;;5077813;28;20425;-82
2022/03/16 00:50:32;;;;;;;37.90;26.40;;;;;;;;;;5080791;28;20753;-83
2022/03/16 00:52:58;;;;;;;39.50;27.60;;;;;;;;;;5079268;28;20430;-84
2022/03/16 00:55:24;;;;;;;39.00;26.70;;;;;;;;;;5079898;28;20828;-83
2022/03/16 00:57:52;;;;;;;37.08;24.55;;;;;;;;;;5079618;28;20451;-84
2022/03/16 01:00:18;;;;;;;37.63;24.80;;;;;;;;;;5079799;28;20436;-83
2022/03/16 01:02:44;;;;;;;36.85;25.60;;;;;;;;;;5078794;28;20846;-82
2022/03/16 01:05:11;;;;;;;34.17;24.63;;;;;;;;;;5077993;28;20430;-83
2022/03/16 01:07:37;;;;;;;33.78;23.35;;;;;;;;;;5079392;28;20919;-83
2022/03/16 01:10:04;;;;;;;32.42;23.92;;;;;;;;;;5079332;28;20826;-82
2022/03/16 01:12:30;;;;;;;32.55;21.63;;;;;;;;;;5078850;28;21051;-82
2022/03/16 01:14:58;;;;;;;31.27;23.10;;;;;;;;;;5079292;28;20425;-83
2022/03/16 01:17:25;;;;;;;32.05;23.63;;;;;;;;;;5078493;28;20923;-83
2022/03/16 01:19:51;;;;;;;33.65;23.25;;;;;;;;;;5077977;28;20419;-84
2022/03/16 01:22:17;;;;;;;32.05;22.45;;;;;;;;;;5075591;28;20428;-83
2022/03/16 01:24:44;;;;;;;31.08;23.10;;;;;;;;;;5079761;28;20420;-83
2022/03/16 01:27:10;;;;;;;28.95;21.15;;;;;;;;;;5112609;22;20501;-86
2022/03/16 01:29:36;;;;;;;28.80;21.10;;;;;;;;;;5054510;28;20483;-85
2022/03/16 01:32:04;;;;;;;31.67;20.73;;;;;;;;;;5057708;28;20428;-86
2022/03/16 01:34:30;;;;;;;29.60;20.00;;;;;;;;;;5057287;28;20475;-85
2022/03/16 01:36:57;;;;;;;27.40;20.60;;;;;;;;;;5047535;28;20425;-86
2022/03/16 01:39:23;;;;;;;29.80;21.25;;;;;;;;;;5039598;28;20413;-86
2022/03/16 01:41:50;;;;;;;27.48;20.20;;;;;;;;;;5038773;28;20463;-85
2022/03/16 01:44:16;;;;;;;25.83;18.67;;;;;;;;;;5039076;28;20434;-86
2022/03/16 01:46:42;;;;;;;23.52;17.65;;;;;;;;;;5038749;28;20425;-84
2022/03/16 01:49:10;;;;;;;25.90;18.25;;;;;;;;;;5038985;28;20434;-86
2022/03/16 01:51:36;;;;;;;23.60;18.00;;;;;;;;;;5038048;28;20421;-86
2022/03/16 01:54:03;;;;;;;27.27;18.90;;;;;;;;;;5038720;28;22211;-86
2022/03/16 01:56:29;;;;;;;27.67;19.90;;;;;;;;;;5039630;28;20439;-85
2022/03/16 01:58:55;;;;;;;28.17;19.13;;;;;;;;;;5039846;28;20481;-86
2022/03/16 02:01:21;;;;;;;33.28;20.92;;;;;;;;;;5039668;28;20418;-86
2022/03/16 02:03:48;;;;;;;31.00;21.35;;;;;;;;;;5039402;28;20479;-86
2022/03/16 02:06:15;;;;;;;28.80;19.45;;;;;;;;;;5039405;28;20427;-86
2022/03/16 02:08:41;;;;;;;31.92;21.38;;;;;;;;;;5040235;28;20488;-86
2022/03/16 02:11:08;;;;;;;30.60;20.52;;;;;;;;;;5038328;28;20493;-86
2022/03/16 02:13:36;;;;;;;31.23;21.45;;;;;;;;;;5040061;28;20467;-84
2022/03/16 02:16:02;;;;;;;27.60;19.55;;;;;;;;;;5039430;28;20474;-86
2022/03/16 02:18:28;;;;;;;31.05;21.23;;;;;;;;;;5039807;28;20417;-86
2022/03/16 02:20:55;;;;;;;30.00;21.17;;;;;;;;;;5039758;28;20419;-86
2022/03/16 02:23:22;;;;;;;30.60;20.52;;;;;;;;;;5037885;28;20470;-83
2022/03/16 02:25:50;;;;;;;32.80;20.55;;;;;;;;;;5041335;28;20473;-83
2022/03/16 02:28:16;;;;;;;30.30;20.52;;;;;;;;;;5037909;28;20480;-86
2022/03/16 02:30:42;;;;;;;30.15;21.20;;;;;;;;;;5040826;28;20419;-83
2022/03/16 02:33:09;;;;;;;26.65;18.85;;;;;;;;;;5042370;28;20852;-84
2022/03/16 02:35:35;;;;;;;29.02;19.63;;;;;;;;;;5041941;28;20409;-84
2022/03/16 02:38:02;;;;;;;26.75;18.55;;;;;;;;;;5040607;28;20419;-84
2022/03/16 02:40:30;;;;;;;29.15;19.92;;;;;;;;;;5041040;28;20931;-84
2022/03/16 02:42:56;;;;;;;31.00;21.05;;;;;;;;;;5040588;28;20918;-84
2022/03/16 02:45:22;;;;;;;24.90;17.55;;;;;;;;;;5040554;28;20469;-83
2022/03/16 02:47:49;;;;;;;28.17;19.83;;;;;;;;;;5041822;28;20544;-84
2022/03/16 02:50:16;;;;;;;26.40;18.17;;;;;;;;;;5041474;28;20433;-84
2022/03/16 02:52:43;;;;;;;26.38;18.15;;;;;;;;;;5040629;28;20464;-83
2022/03/16 02:55:09;;;;;;;31.83;20.83;;;;;;;;;;5039750;28;20797;-86
2022/03/16 02:57:37;;;;;;;34.92;22.88;;;;;;;;;;5039879;28;20422;-86
2022/03/16 03:00:04;;;;;;;34.58;23.85;;;;;;;;;;5038357;28;20445;-84
2022/03/16 03:02:30;;;;;;;37.65;24.25;;;;;;;;;;5040532;28;20988;-84
2022/03/16 03:04:56;;;;;;;31.38;20.98;;;;;;;;;;5040676;28;20430;-85
2022/03/16 03:07:23;;;;;;;28.15;21.48;;;;;;;;;;5038466;28;20507;-86
2022/03/16 03:09:49;;;;;;;34.35;21.00;;;;;;;;;;5038418;28;20433;-86
2022/03/16 03:12:15;;;;;;;33.38;21.67;;;;;;;;;;5038980;28;20421;-86
2022/03/16 03:14:43;;;;;;;33.42;21.65;;;;;;;;;;5039855;28;20425;-86
2022/03/16 03:17:09;;;;;;;29.65;20.83;;;;;;;;;;5035033;28;20487;-86
2022/03/16 03:19:36;;;;;;;29.73;21.10;;;;;;;;;;5038989;28;20451;-84
2022/03/16 03:22:04;;;;;;;30.00;20.42;;;;;;;;;;5039458;28;20438;-84
2022/03/16 03:24:30;;;;;;;36.03;22.67;;;;;;;;;;5040553;28;20433;-84
2022/03/16 03:26:56;;;;;;;42.60;25.25;;;;;;;;;;5040931;28;20467;-84
2022/03/16 03:29:23;;;;;;;49.63;28.60;;;;;;;;;;5037555;28;20435;-84
2022/03/16 03:31:51;;;;;;;51.05;29.80;;;;;;;;;;5025124;28;20435;-87
2022/03/16 03:34:17;;;;;;;52.20;28.55;;;;;;;;;;5018171;28;20424;-86
2022/03/16 03:36:43;;;;;;;55.65;30.58;;;;;;;;;;5019531;28;20427;-83
2022/03/16 03:39:09;;;;;;;51.08;29.52;;;;;;;;;;5017695;28;20492;-83
2022/03/16 03:41:36;;;;;;;56.85;31.90;;;;;;;;;;5031715;28;20426;-84
2022/03/16 03:44:02;;;;;;;59.17;32.87;;;;;;;;;;5041174;28;20931;-84
2022/03/16 03:46:28;;;;;;;58.92;33.70;;;;;;;;;;5040216;28;20471;-86
2022/03/16 03:48:56;;;;;;;52.43;31.03;;;;;;;;;;5043033;28;20421;-84
2022/03/16 03:51:22;;;;;;;53.05;30.58;;;;;;;;;;5041388;28;20433;-84
2022/03/16 03:53:49;;;;;;;58.88;33.67;;;;;;;;;;5041363;28;20450;-83
2022/03/16 03:56:15;;;;;;;61.75;32.25;;;;;;;;;;5041572;28;20469;-84
2022/03/16 03:58:42;;;;;;;60.03;34.70;;;;;;;;;;5041761;28;20908;-83
2022/03/16 04:01:08;;;;;;;77.05;38.95;;;;;;;;;;5045160;28;20932;-84
2022/03/16 04:03:34;;;;;;;64.07;35.93;;;;;;;;;;5042887;28;20425;-84
2022/03/16 04:06:02;;;;;;;81.38;40.65;;;;;;;;;;5044677;28;20413;-84
2022/03/16 04:08:28;;;;;;;64.95;35.47;;;;;;;;;;5042931;28;20429;-84
2022/03/16 04:10:54;;;;;;;57.13;33.40;;;;;;;;;;5043164;28;20469;-84
2022/03/16 04:13:20;;;;;;;47.20;29.45;;;;;;;;;;5044494;28;20484;-84
2022/03/16 04:15:47;;;;;;;49.42;29.23;;;;;;;;;;5042787;28;20415;-84
2022/03/16 04:18:13;;;;;;;48.88;29.30;;;;;;;;;;5043957;28;20834;-84
2022/03/16 04:20:39;;;;;;;48.90;28.65;;;;;;;;;;5044361;28;20965;-84
2022/03/16 04:23:07;;;;;;;51.05;30.83;;;;;;;;;;5043800;28;20442;-84
2022/03/16 04:25:33;;;;;;;58.47;35.10;;;;;;;;;;5041700;28;20429;-84
2022/03/16 04:27:59;;;;;;;59.53;34.17;;;;;;;;;;5042331;28;20986;-82
2022/03/16 04:30:25;;;;;;;58.20;34.13;;;;;;;;;;5043158;28;20407;-84
2022/03/16 04:32:52;;;;;;;60.63;33.38;;;;;;;;;;5043723;28;20421;-84
2022/03/16 04:35:19;;;;;;;65.45;35.05;;;;;;;;;;5045388;28;20545;-84
2022/03/16 04:37:46;;;;;;;77.90;36.63;;;;;;;;;;5042817;28;20421;-84
2022/03/16 04:40:14;;;;;;;67.90;38.40;;;;;;;;;;5041235;28;20431;-84
2022/03/16 04:42:41;;;;;;;83.45;42.70;;;;;;;;;;5042901;28;20471;-84
2022/03/16 04:45:08;;;;;;;79.82;39.72;;;;;;;;;;5043459;28;20983;-83
2022/03/16 04:47:34;;;;;;;70.80;39.47;;;;;;;;;;5044080;28;20475;-84
2022/03/16 04:50:00;;;;;;;74.80;39.03;;;;;;;;;;5043308;28;20439;-83
2022/03/16 04:52:26;;;;;;;76.88;40.80;;;;;;;;;;5043175;28;20457;-83
2022/03/16 04:54:53;;;;;;;68.53;37.23;;;;;;;;;;5042999;28;20465;-84
2022/03/16 04:57:20;;;;;;;64.75;37.25;;;;;;;;;;5041946;28;20432;-84
2022/03/16 04:59:46;;;;;;;58.53;34.22;;;;;;;;;;5043092;28;20557;-83
2022/03/16 05:02:13;;;;;;;62.67;35.90;;;;;;;;;;5043173;28;20453;-85
2022/03/16 05:04:39;;;;;;;56.35;34.67;;;;;;;;;;5044680;28;20452;-84
2022/03/16 05:07:05;;;;;;;89.85;42.03;;;;;;;;;;5043573;28;20426;-85
2022/03/16 05:09:31;;;;;;;78.15;42.13;;;;;;;;;;5044908;28;20492;-84
2022/03/16 05:11:58;;;;;;;80.30;43.05;;;;;;;;;;5043354;28;20436;-84
2022/03/16 05:14:25;;;;;;;74.38;39.53;;;;;;;;;;5045716;28;20448;-84
2022/03/16 05:16:53;;;;;;;63.88;37.65;;;;;;;;;;5042851;28;20473;-84
2022/03/16 05:19:20;;;;;;;65.70;37.83;;;;;;;;;;5044402;28;20460;-84
2022/03/16 05:21:46;;;;;;;58.97;35.03;;;;;;;;;;5040388;28;20435;-83
2022/03/16 05:24:12;;;;;;;57.83;33.75;;;;;;;;;;5043527;28;20426;-84
2022/03/16 05:26:38;;;;;;;62.97;36.37;;;;;;;;;;5032510;28;20437;-84
2022/03/16 05:29:05;;;;;;;57.53;33.30;;;;;;;;;;5023617;28;20442;-84
2022/03/16 05:31:33;;;;;;;63.15;36.28;;;;;;;;;;5034151;28;20427;-84
2022/03/16 05:33:59;;;;;;;66.82;37.25;;;;;;;;;;5043615;28;20479;-84
2022/03/16 05:36:25;;;;;;;60.20;35.20;;;;;;;;;;5041833;28;20505;-84
2022/03/16 05:38:52;;;;;;;58.78;35.17;;;;;;;;;;5043562;28;20425;-84
2022/03/16 05:41:18;;;;;;;59.00;35.60;;;;;;;;;;5042902;28;20423;-84
2022/03/16 05:43:44;;;;;;;60.17;35.80;;;;;;;;;;5044191;28;20434;-84
2022/03/16 05:46:10;;;;;;;66.60;36.97;;;;;;;;;;5042803;28;20417;-84
2022/03/16 05:48:38;;;;;;;60.90;35.53;;;;;;;;;;5042485;28;20841;-84
2022/03/16 05:51:04;;;;;;;71.47;38.75;;;;;;;;;;5043699;28;20421;-83
2022/03/16 05:53:30;;;;;;;66.85;35.03;;;;;;;;;;5041502;28;20429;-84
2022/03/16 05:55:56;;;;;;;118.97;44.90;;;;;;;;;;5042531;28;20432;-84
2022/03/16 05:58:23;;;;;;;62.85;35.67;;;;;;;;;;5042433;28;20420;-84
2022/03/16 06:00:49;;;;;;;59.05;34.63;;;;;;;;;;5042506;28;20433;-83
2022/03/16 06:03:15;;;;;;;65.10;36.75;;;;;;;;;;5040227;28;20411;-83
2022/03/16 06:05:43;;;;;;;71.63;37.95;;;;;;;;;;5042609;28;20423;-83
2022/03/16 06:08:09;;;;;;;64.75;38.22;;;;;;;;;;5042587;28;20477;-82
2022/03/16 06:10:35;;;;;;;63.15;36.70;;;;;;;;;;5041197;28;20419;-83
2022/03/16 06:13:02;;;;;;;76.07;40.85;;;;;;;;;;5042247;28;20421;-84
2022/03/16 06:15:29;;;;;;;67.75;37.70;;;;;;;;;;5047036;28;20495;-83
2022/03/16 06:17:56;;;;;;;78.43;42.35;;;;;;;;;;5044852;28;20444;-82
2022/03/16 06:20:23;;;;;;;98.78;46.38;;;;;;;;;;5044212;28;20459;-83
2022/03/16 06:22:50;;;;;;;89.95;46.45;;;;;;;;;;5044050;28;20449;-82
2022/03/16 06:25:17;;;;;;;95.72;47.95;;;;;;;;;;5041102;28;21086;-82
2022/03/16 06:27:43;;;;;;;99.13;46.50;;;;;;;;;;5042594;28;20468;-81
2022/03/16 06:30:10;;;;;;;84.57;43.90;;;;;;;;;;5043275;28;20486;-83
2022/03/16 06:32:36;;;;;;;75.63;41.20;;;;;;;;;;5043729;28;20930;-82
2022/03/16 06:35:03;;;;;;;115.93;52.55;;;;;;;;;;5045259;28;20427;-82
2022/03/16 06:37:29;;;;;;;126.10;56.30;;;;;;;;;;5063743;28;20961;-82
2022/03/16 06:39:57;;;;;;;111.55;53.10;;;;;;;;;;5062634;28;20427;-83
2022/03/16 06:42:23;;;;;;;126.32;57.95;;;;;;;;;;5060771;28;20419;-83
2022/03/16 06:44:49;;;;;;;128.87;58.87;;;;;;;;;;5062769;28;20448;-83
2022/03/16 06:47:15;;;;;;;131.23;59.70;;;;;;;;;;5060840;28;20431;-83
2022/03/16 06:49:42;;;;;;;122.87;58.07;;;;;;;;;;5063556;28;20435;-82
2022/03/16 06:52:08;;;;;;;110.28;53.60;;;;;;;;;;5061233;28;20417;-83
2022/03/16 06:54:34;;;;;;;115.55;55.08;;;;;;;;;;5063270;28;20411;-83
2022/03/16 06:57:02;;;;;;;110.35;51.22;;;;;;;;;;5061973;28;20417;-82
2022/03/16 06:59:28;;;;;;;107.07;50.35;;;;;;;;;;5061182;28;20501;-83
2022/03/16 07:01:54;;;;;;;101.82;50.33;;;;;;;;;;5061826;28;20936;-83
2022/03/16 07:04:21;;;;;;;98.75;50.85;;;;;;;;;;5059701;28;20410;-83
2022/03/16 07:06:47;;;;;;;107.57;53.80;;;;;;;;;;5062452;28;20483;-83
2022/03/16 07:09:13;;;;;;;103.90;51.53;;;;;;;;;;5061557;28;20850;-83
2022/03/16 07:11:39;;;;;;;106.57;52.72;;;;;;;;;;5060407;28;20417;-83
2022/03/16 07:16:51;;;;;;;104.88;52.13;;;;;;;;;;5061178;28;20473;-83
2022/03/16 07:19:17;;;;;;;105.03;53.30;;;;;;;;;;5059662;28;20419;-84
2022/03/16 07:21:43;;;;;;;104.25;52.20;;;;;;;;;;5062474;28;20830;-82
2022/03/16 07:24:09;;;;;;;97.25;50.10;;;;;;;;;;5063999;28;20444;-83
2022/03/16 07:29:30;;;;;;;95.65;49.95;;;;;;;;;;5060518;28;20421;-83
2022/03/16 07:31:56;;;;;;;81.47;46.97;;;;;;;;;;5063053;28;20413;-83
2022/03/16 07:34:22;;;;;;;85.35;46.70;;;;;;;;;;5061822;28;20902;-83
2022/03/16 07:36:48;;;;;;;83.68;45.40;;;;;;;;;;5061984;28;20413;-83
2022/03/16 07:39:15;;;;;;;89.30;46.33;;;;;;;;;;5063287;28;20859;-82
2022/03/16 07:41:41;;;;;;;75.93;42.10;;;;;;;;;;5060818;28;21010;-83
2022/03/16 07:44:07;;;;;;;72.32;41.03;;;;;;;;;;5063856;28;20495;-83
2022/03/16 07:46:35;;;;;;;74.93;41.63;;;;;;;;;;5063462;28;20415;-83
2022/03/16 07:49:01;;;;;;;61.90;37.47;;;;;;;;;;5062064;28;20416;-83
2022/03/16 07:51:27;;;;;;;65.22;37.22;;;;;;;;;;5061785;28;21099;-83
2022/03/16 07:53:54;;;;;;;59.80;37.60;;;;;;;;;;5062973;28;20421;-83
2022/03/16 07:56:20;;;;;;;63.30;37.53;;;;;;;;;;5060592;28;20429;-84
2022/03/16 07:58:46;;;;;;;57.78;35.88;;;;;;;;;;5060939;28;20433;-83
2022/03/16 08:01:13;;;;;;;56.15;34.92;;;;;;;;;;5062183;28;20415;-83
2022/03/16 08:03:41;;;;;;;58.08;35.28;;;;;;;;;;5062406;28;20429;-83
2022/03/16 08:06:07;;;;;;;52.28;33.30;;;;;;;;;;5061610;28;20431;-83
2022/03/16 08:08:33;;;;;;;51.78;32.75;;;;;;;;;;5060187;28;20429;-83
2022/03/16 08:10:59;;;;;;;52.60;32.55;;;;;;;;;;5061470;28;20423;-84
2022/03/16 08:13:25;;;;;;;53.22;33.72;;;;;;;;;;5062166;28;20413;-83
2022/03/16 08:15:52;;;;;;;58.92;33.40;;;;;;;;;;5059090;28;20909;-83
2022/03/16 08:18:18;;;;;;;57.05;34.70;;;;;;;;;;5062046;28;20432;-83
2022/03/16 08:20:45;;;;;;;55.47;33.47;;;;;;;;;;5062691;28;20413;-83
2022/03/16 08:23:13;;;;;;;53.35;32.28;;;;;;;;;;5062135;28;20424;-83
2022/03/16 08:25:39;;;;;;;53.97;32.90;;;;;;;;;;5061441;28;20421;-83
2022/03/16 08:28:05;;;;;;;49.00;32.03;;;;;;;;;;5079472;28;20465;-83
2022/03/16 08:30:34;;;;;;;53.17;32.05;;;;;;;;;;5103036;28;20412;-83
2022/03/16 08:33:00;;;;;;;53.03;31.40;;;;;;;;;;5099067;28;20889;-83
2022/03/16 08:35:26;;;;;;;48.17;29.33;;;;;;;;;;5103001;28;20812;-84
2022/03/16 08:37:54;;;;;;;44.25;28.13;;;;;;;;;;5101533;28;20463;-83
2022/03/16 08:40:20;;;;;;;46.80;29.42;;;;;;;;;;5102250;28;20420;-83
2022/03/16 08:42:46;;;;;;;52.75;29.70;;;;;;;;;;5102105;28;21102;-83
2022/03/16 08:45:13;;;;;;;52.22;32.33;;;;;;;;;;5102173;28;20491;-83
2022/03/16 08:47:39;;;;;;;47.15;31.00;;;;;;;;;;5102271;28;20417;-83
2022/03/16 08:50:06;;;;;;;50.43;33.03;;;;;;;;;;5100148;28;20545;-83
2022/03/16 08:52:33;;;;;;;52.97;33.13;;;;;;;;;;5101205;28;20428;-85
2022/03/16 08:55:00;;;;;;;50.92;32.25;;;;;;;;;;5099930;28;20905;-84
2022/03/16 08:57:28;;;;;;;45.90;31.73;;;;;;;;;;5102296;28;20416;-84
2022/03/16 08:59:55;;;;;;;46.30;30.35;;;;;;;;;;5101053;28;20417;-85
2022/03/16 09:02:22;;;;;;;43.97;28.90;;;;;;;;;;5101952;28;20459;-84
2022/03/16 09:04:48;;;;;;;44.53;29.63;;;;;;;;;;5101593;28;20443;-84
2022/03/16 09:07:14;;;;;;;47.80;30.50;;;;;;;;;;5099189;28;20418;-84
2022/03/16 09:09:41;;;;;;;48.67;30.33;;;;;;;;;;5102763;28;20465;-84
2022/03/16 09:12:11;;;;;;;44.08;27.95;;;;;;;;;;5100292;28;20409;-84
2022/03/16 09:14:37;;;;;;;46.17;28.60;;;;;;;;;;5100546;28;20782;-84
2022/03/16 09:17:04;;;;;;;43.37;28.20;;;;;;;;;;5100956;28;21096;-83
2022/03/16 09:19:30;;;;;;;42.92;28.73;;;;;;;;;;5100566;28;20410;-84
2022/03/16 09:21:56;;;;;;;44.70;28.77;;;;;;;;;;5100761;28;20408;-84
2022/03/16 09:24:24;;;;;;;46.38;27.67;;;;;;;;;;5099951;28;20465;-84
2022/03/16 09:26:51;;;;;;;42.03;27.85;;;;;;;;;;5100026;28;20442;-84
2022/03/16 09:29:18;;;;;;;41.63;27.15;;;;;;;;;;5100410;28;20482;-84
2022/03/16 09:31:45;;;;;;;38.00;26.37;;;;;;;;;;5101527;28;20422;-83
2022/03/16 09:34:11;;;;;;;44.20;27.38;;;;;;;;;;5100183;28;20428;-84
2022/03/16 09:36:39;;;;;;;40.67;27.43;;;;;;;;;;5101151;28;20465;-84
2022/03/16 09:39:05;;;;;;;42.57;26.60;;;;;;;;;;5100751;28;20889;-84
2022/03/16 09:41:31;;;;;;;40.88;26.83;;;;;;;;;;5099432;28;20481;-84
2022/03/16 09:43:58;;;;;;;41.25;25.17;;;;;;;;;;5100870;28;20473;-84
2022/03/16 09:46:29;;;;;;;35.35;25.75;;;;;;;;;;5100727;28;20414;-84
2022/03/16 09:48:55;;;;;;;40.50;25.55;;;;;;;;;;5099958;28;20927;-84
2022/03/16 09:51:22;;;;;;;34.35;22.83;;;;;;;;;;5100805;28;20824;-84
2022/03/16 09:53:49;;;;;;;37.47;23.80;;;;;;;;;;5100604;28;20418;-84
2022/03/16 09:56:15;;;;;;;35.88;24.20;;;;;;;;;;5101423;28;20408;-84
2022/03/16 09:58:42;;;;;;;36.03;25.00;;;;;;;;;;5099459;28;20417;-84
2022/03/16 10:01:08;;;;;;;35.97;24.85;;;;;;;;;;5101020;28;20406;-85
2022/03/16 10:03:36;;;;;;;38.95;24.80;;;;;;;;;;5100207;28;20887;-85
2022/03/16 10:06:02;;;;;;;35.87;23.63;;;;;;;;;;5098565;28;20926;-84
2022/03/16 10:08:29;;;;;;;34.25;24.23;;;;;;;;;;5099933;28;20496;-84
2022/03/16 10:13:48;;;;;;;37.60;24.58;;;;;;;;;;5045724;28;20402;-85
2022/03/16 10:16:16;;;;;;;38.10;25.23;;;;;;;;;;5097455;28;21195;-84
2022/03/16 10:18:52;;;;;;;32.80;24.27;;;;;;;;;;5099850;28;20449;-83
2022/03/16 10:21:19;;;;;;;34.75;23.17;;;;;;;;;;5098661;28;20445;-85
2022/03/16 10:23:45;;;;;;;35.63;24.27;;;;;;;;;;5098959;28;20859;-84
2022/03/16 10:26:15;;;;;;;40.20;24.83;;;;;;;;;;5099234;28;20414;-84
2022/03/16 10:28:42;;;;;;;39.33;24.65;;;;;;;;;;5100671;28;20497;-84
2022/03/16 10:31:09;;;;;;;37.60;23.02;;;;;;;;;;5099382;28;20410;-84
2022/03/16 10:33:36;;;;;;;38.85;23.77;;;;;;;;;;5099974;28;20422;-84
2022/03/16 10:36:05;;;;;;;36.85;24.60;;;;;;;;;;5100352;28;20410;-84
2022/03/16 10:38:36;;;;;;;39.60;23.80;;;;;;;;;;5100336;28;20913;-84
2022/03/16 10:41:10;;;;;;;37.75;23.77;;;;;;;;;;5098728;28;20414;-84
2022/03/16 10:46:38;;;;;;;36.63;24.55;;;;;;;;;;5100476;28;20999;-85
2022/03/16 10:49:05;;;;;;;37.43;22.40;;;;;;;;;;5098469;28;20414;-85
2022/03/16 10:51:33;;;;;;;38.43;24.27;;;;;;;;;;5099378;28;20442;-84
2022/03/16 10:54:00;;;;;;;34.50;23.90;;;;;;;;;;5098867;28;20815;-85
2022/03/16 10:56:27;;;;;;;37.28;22.92;;;;;;;;;;5102575;28;20457;-84
2022/03/16 10:58:54;;;;;;;36.33;23.77;;;;;;;;;;5103447;28;20430;-84
2022/03/16 11:01:21;;;;;;;34.33;24.48;;;;;;;;;;5103588;28;20420;-84
2022/03/16 11:03:48;;;;;;;36.20;23.15;;;;;;;;;;5105149;28;20440;-84
2022/03/16 11:06:14;;;;;;;35.58;24.05;;;;;;;;;;5104104;28;21021;-85
2022/03/16 11:08:43;;;;;;;40.75;23.45;;;;;;;;;;5103825;28;20502;-84
2022/03/16 11:13:50;;;;;;;37.20;23.45;;;;;;;;;;5101634;28;20428;-85
2022/03/16 11:16:19;;;;;;;33.85;22.30;;;;;;;;;;5104310;28;20830;-84
2022/03/16 11:18:48;;;;;;;32.70;22.15;;;;;;;;;;5106214;28;20451;-84
2022/03/16 11:21:15;;;;;;;38.80;22.70;;;;;;;;;;5102947;28;20409;-84
2022/03/16 11:26:36;;;;;;;32.35;21.95;;;;;;;;;;5103612;28;20482;-84
2022/03/16 11:29:09;;;;;;;30.05;21.40;;;;;;;;;;5104975;28;20431;-84
2022/03/16 11:31:35;;;;;;;29.67;20.65;;;;;;;;;;5103907;28;20921;-85
2022/03/16 11:34:04;;;;;;;30.40;21.33;;;;;;;;;;5106367;28;20425;-84
2022/03/16 11:36:31;;;;;;;31.40;21.90;;;;;;;;;;5104902;28;20936;-85
2022/03/16 11:39:01;;;;;;;28.98;19.60;;;;;;;;;;5103293;28;20453;-84
2022/03/16 11:41:28;;;;;;;32.40;20.88;;;;;;;;;;5104789;28;20441;-84
2022/03/16 11:44:01;;;;;;;30.50;19.55;;;;;;;;;;5104093;28;20420;-85
2022/03/16 11:46:28;;;;;;;31.80;19.90;;;;;;;;;;5104229;28;20419;-85
2022/03/16 11:49:00;;;;;;;26.63;19.47;;;;;;;;;;5102020;28;20446;-85
2022/03/16 11:51:27;;;;;;;26.67;18.70;;;;;;;;;;5104318;28;21101;-84
2022/03/16 11:54:11;;;;;;;32.83;21.30;;;;;;;;;;5103955;28;20909;-84
2022/03/16 11:56:52;;;;;;;33.30;19.50;;;;;;;;;;5101239;28;20414;-85
2022/03/16 11:59:31;;;;;;;31.67;19.40;;;;;;;;;;5102065;28;20431;-84
2022/03/16 12:02:05;;;;;;;28.20;18.50;;;;;;;;;;5105338;28;20410;-84
2022/03/16 12:04:32;;;;;;;26.75;17.58;;;;;;;;;;5104600;28;20467;-85
2022/03/16 12:07:02;;;;;;;29.67;19.30;;;;;;;;;;5100256;28;20420;-85
2022/03/16 12:09:37;;;;;;;27.38;18.23;;;;;;;;;;5105229;28;20453;-85
2022/03/16 12:14:58;;;;;;;29.95;18.52;;;;;;;;;;5103751;28;20411;-84
2022/03/16 12:17:24;;;;;;;26.30;18.50;;;;;;;;;;5104678;28;20451;-83
2022/03/16 12:20:06;;;;;;;28.33;18.70;;;;;;;;;;5103403;28;20410;-86
2022/03/16 12:22:36;;;;;;;26.35;18.80;;;;;;;;;;5101913;28;20419;-85
2022/03/16 12:25:17;;;;;;;26.73;17.65;;;;;;;;;;5104717;28;20418;-84
2022/03/16 12:30:29;;;;;;;21.93;16.60;;;;;;;;;;5103980;28;20417;-85
2022/03/16 12:32:56;;;;;;;23.17;16.02;;;;;;;;;;5104205;28;20958;-84
2022/03/16 12:35:25;;;;;;;25.25;16.40;;;;;;;;;;5105778;28;20420;-85
2022/03/16 12:37:51;;;;;;;24.70;17.05;;;;;;;;;;5103432;28;20416;-85
2022/03/16 12:40:20;;;;;;;24.92;17.00;;;;;;;;;;5102855;28;20424;-85
2022/03/16 12:42:53;;;;;;;23.00;15.40;;;;;;;;;;5104658;28;20414;-85
2022/03/16 12:45:21;;;;;;;29.30;16.10;;;;;;;;;;5103102;28;20415;-85
2022/03/16 12:47:55;;;;;;;25.52;16.60;;;;;;;;;;5103774;28;20410;-85
2022/03/16 12:50:26;;;;;;;24.13;15.35;;;;;;;;;;5100784;28;20816;-85
2022/03/16 12:52:52;;;;;;;22.10;15.60;;;;;;;;;;5101590;28;20496;-84
2022/03/16 12:55:19;;;;;;;19.60;14.68;;;;;;;;;;5100491;28;20435;-85
2022/03/16 12:57:50;;;;;;;20.60;14.73;;;;;;;;;;5102719;28;20438;-85
2022/03/16 13:00:18;;;;;;;23.52;15.27;;;;;;;;;;5101670;28;20416;-84
2022/03/16 13:02:44;;;;;;;24.20;16.08;;;;;;;;;;5102100;28;20459;-85
2022/03/16 13:05:11;;;;;;;24.17;16.50;;;;;;;;;;5101533;28;20433;-85
2022/03/16 13:07:38;;;;;;;22.73;15.60;;;;;;;;;;5101531;28;20415;-86
2022/03/16 13:10:06;;;;;;;22.52;15.35;;;;;;;;;;5100305;28;20423;-85
2022/03/16 13:12:32;;;;;;;20.73;14.38;;;;;;;;;;5101651;28;20432;-85
2022/03/16 13:14:58;;;;;;;24.95;14.95;;;;;;;;;;5102102;28;20421;-84
2022/03/16 13:17:35;;;;;;;23.67;15.15;;;;;;;;;;5102082;28;20483;-86
2022/03/16 13:20:03;;;;;;;21.53;15.20;;;;;;;;;;5100836;28;20488;-85
2022/03/16 13:22:30;;;;;;;23.20;15.65;;;;;;;;;;5101606;28;20487;-85
2022/03/16 13:24:57;;;;;;;22.80;14.43;;;;;;;;;;5101870;28;20906;-84
2022/03/16 13:27:24;;;;;;;22.00;15.45;;;;;;;;;;5100790;28;20428;-85
2022/03/16 13:29:52;;;;;;;21.27;14.70;;;;;;;;;;5101192;22;20479;-81
2022/03/16 13:32:19;;;;;;;21.52;15.30;;;;;;;;;;5062197;28;20430;-81
2022/03/16 13:34:47;;;;;;;22.10;14.30;;;;;;;;;;5059951;28;20476;-82
2022/03/16 13:37:20;;;;;;;20.25;13.50;;;;;;;;;;5060855;28;20477;-83
2022/03/16 13:39:55;;;;;;;20.75;13.23;;;;;;;;;;5060730;28;20418;-81
2022/03/16 13:42:27;;;;;;;20.30;15.02;;;;;;;;;;5080425;28;20416;-81
2022/03/16 13:44:53;;;;;;;20.88;14.98;;;;;;;;;;5080130;28;20855;-81
2022/03/16 13:47:20;;;;;;;19.23;14.23;;;;;;;;;;5062076;28;20417;-81
2022/03/16 13:49:49;;;;;;;19.63;14.45;;;;;;;;;;5059384;28;20767;-81
2022/03/16 13:52:18;;;;;;;25.87;14.77;;;;;;;;;;5058737;28;20423;-81
2022/03/16 13:54:44;;;;;;;23.90;14.90;;;;;;;;;;5060364;28;20436;-81
2022/03/16 13:57:11;;;;;;;21.85;14.88;;;;;;;;;;5059805;28;20421;-82
2022/03/16 13:59:37;;;;;;;20.90;14.70;;;;;;;;;;5058746;28;20420;-82
2022/03/16 14:02:14;;;;;;;19.10;13.88;;;;;;;;;;5058699;28;20429;-82
2022/03/16 14:04:42;;;;;;;21.42;14.40;;;;;;;;;;5061153;28;20424;-80
2022/03/16 14:07:20;;;;;;;18.60;13.80;;;;;;;;;;5058338;28;20415;-82
2022/03/16 14:09:47;;;;;;;22.90;13.67;;;;;;;;;;5057665;28;20475;-81
2022/03/16 14:12:16;;;;;;;18.95;13.00;;;;;;;;;;5059170;28;20411;-82
2022/03/16 14:14:45;;;;;;;21.17;13.05;;;;;;;;;;5059161;28;20941;-79
2022/03/16 14:17:11;;;;;;;18.37;13.13;;;;;;;;;;5061467;28;20424;-82
2022/03/16 14:19:38;;;;;;;22.00;12.88;;;;;;;;;;5058646;28;20438;-82
2022/03/16 14:22:05;;;;;;;19.33;12.90;;;;;;;;;;5060336;28;20418;-80
2022/03/16 14:24:34;;;;;;;20.35;13.35;;;;;;;;;;5060136;28;20423;-81
2022/03/16 14:27:15;;;;;;;17.58;12.68;;;;;;;;;;5059550;28;20423;-81
2022/03/16 14:29:42;;;;;;;18.42;12.00;;;;;;;;;;5057553;28;20927;-81
2022/03/16 14:32:08;;;;;;;20.38;12.90;;;;;;;;;;5057844;28;20553;-82
2022/03/16 14:34:34;;;;;;;17.33;11.90;;;;;;;;;;5059595;28;20429;-81
2022/03/16 14:37:01;;;;;;;16.42;11.85;;;;;;;;;;5061473;28;20473;-82
2022/03/16 14:39:27;;;;;;;16.00;11.68;;;;;;;;;;5059160;28;20498;-81